Time;durP1;ratioP1;P1;durP2;ratioP2;P2;SDS_P1;SDS_P2;PMS_P1;PMS_P2;Temp;Humidity;BMP_temperature;BMP_pressure;BME280_temperature;BME280_humidity;BME280_pressure;Samples;Min_cycle;Max_cycle;Signal;HPM_P1;HPM_P2
2021/08/05 00:00:37;;;;;;;12.07;5.68;;;;;;;;;;4463277;32;20711;-59
2021/08/05 00:03:03;;;;;;;8.00;5.03;;;;;;;;;;4460041;32;20269;-58
2021/08/05 00:05:28;;;;;;;14.18;5.43;;;;;;;;;;4464766;32;20279;-58
2021/08/05 00:07:54;;;;;;;17.40;4.97;;;;;;;;;;4453588;32;20288;-59
2021/08/05 00:10:19;;;;;;;10.93;5.07;;;;;;;;;;4462223;32;20267;-58
2021/08/05 00:12:45;;;;;;;9.02;4.45;;;;;;;;;;4451969;32;20282;-58
2021/08/05 00:15:11;;;;;;;15.55;4.53;;;;;;;;;;4457338;32;20383;-58
2021/08/05 00:17:36;;;;;;;8.85;4.12;;;;;;;;;;4456210;32;20302;-58
2021/08/05 00:20:03;;;;;;;10.45;4.40;;;;;;;;;;4460625;32;20208;-58
2021/08/05 00:22:29;;;;;;;10.15;3.62;;;;;;;;;;4463776;32;20374;-58
2021/08/05 00:24:54;;;;;;;12.98;4.28;;;;;;;;;;4453590;32;20601;-57
2021/08/05 00:27:20;;;;;;;10.40;4.45;;;;;;;;;;4464889;32;20450;-58
2021/08/05 00:29:46;;;;;;;12.43;4.78;;;;;;;;;;4455058;32;20352;-57
2021/08/05 00:32:11;;;;;;;11.68;4.00;;;;;;;;;;4461564;32;20280;-57
2021/08/05 00:34:36;;;;;;;13.30;5.20;;;;;;;;;;4451566;32;20231;-58
2021/08/05 00:37:02;;;;;;;22.73;8.52;;;;;;;;;;4464641;32;20216;-58
2021/08/05 00:39:28;;;;;;;14.82;6.78;;;;;;;;;;4456534;32;20280;-58
2021/08/05 00:41:53;;;;;;;18.87;6.22;;;;;;;;;;4459917;32;20216;-58
2021/08/05 00:44:19;;;;;;;22.65;5.95;;;;;;;;;;4464103;32;20216;-57
2021/08/05 00:46:44;;;;;;;9.85;4.65;;;;;;;;;;4462535;32;20656;-57
2021/08/05 00:49:10;;;;;;;8.50;4.78;;;;;;;;;;4464278;32;20307;-57
2021/08/05 00:51:35;;;;;;;13.88;4.80;;;;;;;;;;4455856;32;20505;-57
2021/08/05 00:54:01;;;;;;;9.07;3.95;;;;;;;;;;4450500;32;20315;-57
2021/08/05 00:56:26;;;;;;;8.40;4.82;;;;;;;;;;4451646;32;20216;-58
2021/08/05 00:58:52;;;;;;;12.98;5.03;;;;;;;;;;4447743;32;20204;-58
2021/08/05 01:01:20;;;;;;;13.23;4.35;;;;;;;;;;4454294;32;20247;-58
2021/08/05 01:03:49;;;;;;;9.23;4.03;;;;;;;;;;4457933;32;20317;-58
2021/08/05 01:06:26;;;;;;;14.80;4.97;;;;;;;;;;4449119;32;20228;-58
2021/08/05 01:09:23;;;;;;;8.52;4.62;;;;;;;;;;4457407;32;20549;-58
2021/08/05 01:12:04;;;;;;;10.02;3.78;;;;;;;;;;4451973;32;20306;-58
2021/08/05 01:14:35;;;;;;;7.30;3.92;;;;;;;;;;4460496;32;20235;-58
2021/08/05 01:17:03;;;;;;;9.63;4.20;;;;;;;;;;4453078;32;20449;-58
2021/08/05 01:19:41;;;;;;;9.18;4.62;;;;;;;;;;4453298;32;20341;-58
2021/08/05 01:22:26;;;;;;;11.88;3.95;;;;;;;;;;4452617;32;20374;-57
2021/08/05 01:25:04;;;;;;;12.25;4.35;;;;;;;;;;4463146;32;20334;-57
2021/08/05 01:27:31;;;;;;;9.27;3.95;;;;;;;;;;4462612;32;20211;-58
2021/08/05 01:29:58;;;;;;;13.55;4.82;;;;;;;;;;4451047;32;20272;-58
2021/08/05 01:32:24;;;;;;;10.60;3.37;;;;;;;;;;4457010;32;20212;-58
2021/08/05 01:34:49;;;;;;;13.93;4.00;;;;;;;;;;4457895;32;20234;-58
2021/08/05 01:37:17;;;;;;;9.15;3.40;;;;;;;;;;4462594;32;20236;-59
2021/08/05 01:39:44;;;;;;;20.37;4.03;;;;;;;;;;4463946;32;20188;-58
2021/08/05 01:42:10;;;;;;;13.18;3.97;;;;;;;;;;4463513;32;20313;-59
2021/08/05 01:44:36;;;;;;;8.38;4.65;;;;;;;;;;4462530;32;20279;-57
2021/08/05 01:47:02;;;;;;;11.52;4.43;;;;;;;;;;4462735;32;20689;-58
2021/08/05 01:49:27;;;;;;;8.32;4.07;;;;;;;;;;4457175;32;20327;-57
2021/08/05 01:51:53;;;;;;;12.45;4.00;;;;;;;;;;4462504;32;20291;-58
2021/08/05 01:54:19;;;;;;;10.77;4.40;;;;;;;;;;4464472;32;20598;-58
2021/08/05 01:56:45;;;;;;;7.97;3.22;;;;;;;;;;4464284;32;20246;-59
2021/08/05 01:59:10;;;;;;;9.07;4.00;;;;;;;;;;4463178;32;20311;-58
2021/08/05 02:01:36;;;;;;;7.68;3.70;;;;;;;;;;4455286;32;20244;-59
2021/08/05 02:04:04;;;;;;;10.18;3.85;;;;;;;;;;4452810;32;20244;-58
2021/08/05 02:06:36;;;;;;;10.60;3.92;;;;;;;;;;4461506;32;20231;-58
2021/08/05 02:09:30;;;;;;;14.02;4.62;;;;;;;;;;4448521;32;20240;-58
2021/08/05 02:11:57;;;;;;;15.13;4.25;;;;;;;;;;4451601;32;20359;-57
2021/08/05 02:14:24;;;;;;;9.60;4.03;;;;;;;;;;4463780;32;20319;-58
2021/08/05 02:16:52;;;;;;;17.75;4.32;;;;;;;;;;4462449;32;20705;-58
2021/08/05 02:19:18;;;;;;;13.70;5.32;;;;;;;;;;4451785;32;20277;-58
2021/08/05 02:21:44;;;;;;;14.77;5.30;;;;;;;;;;4455364;32;20240;-59
2021/08/05 02:24:10;;;;;;;15.18;4.07;;;;;;;;;;4448417;32;20275;-58
2021/08/05 02:26:39;;;;;;;9.85;3.80;;;;;;;;;;4448524;32;20276;-59
2021/08/05 02:29:05;;;;;;;6.78;3.47;;;;;;;;;;4448668;32;20232;-59
2021/08/05 02:31:31;;;;;;;14.02;4.32;;;;;;;;;;4453805;32;20318;-58
2021/08/05 02:33:58;;;;;;;9.63;4.25;;;;;;;;;;4448027;32;20264;-59
2021/08/05 02:36:23;;;;;;;16.55;6.05;;;;;;;;;;4458808;32;20220;-59
2021/08/05 02:38:50;;;;;;;11.70;4.00;;;;;;;;;;4456777;32;20580;-59
2021/08/05 02:41:16;;;;;;;15.63;5.07;;;;;;;;;;4450046;32;20262;-60
2021/08/05 02:43:44;;;;;;;11.68;5.05;;;;;;;;;;4461410;32;20591;-59
2021/08/05 02:46:11;;;;;;;12.93;4.35;;;;;;;;;;4465426;32;20767;-57
2021/08/05 02:48:37;;;;;;;14.82;4.15;;;;;;;;;;4453720;32;20675;-57
2021/08/05 02:51:03;;;;;;;9.68;4.20;;;;;;;;;;4462392;32;20212;-57
2021/08/05 02:53:29;;;;;;;8.75;3.58;;;;;;;;;;4466575;32;20247;-57
2021/08/05 02:55:56;;;;;;;11.73;4.70;;;;;;;;;;4452565;32;20295;-57
2021/08/05 02:58:22;;;;;;;10.27;3.83;;;;;;;;;;4452944;32;20571;-57
2021/08/05 03:00:48;;;;;;;16.98;4.72;;;;;;;;;;4460415;32;20331;-58
2021/08/05 03:03:13;;;;;;;14.87;4.78;;;;;;;;;;4453701;32;20240;-58
2021/08/05 03:05:41;;;;;;;16.87;4.50;;;;;;;;;;4451447;32;20294;-56
2021/08/05 03:08:07;;;;;;;9.52;3.78;;;;;;;;;;4453709;32;20718;-57
2021/08/05 03:10:33;;;;;;;17.17;3.80;;;;;;;;;;4458138;32;20230;-57
2021/08/05 03:12:58;;;;;;;15.07;4.07;;;;;;;;;;4466329;32;20216;-58
2021/08/05 03:15:24;;;;;;;11.02;4.87;;;;;;;;;;4459759;32;20242;-58
2021/08/05 03:17:49;;;;;;;10.65;4.12;;;;;;;;;;4457753;32;20313;-57
2021/08/05 03:20:17;;;;;;;11.57;4.43;;;;;;;;;;4460812;32;20272;-59
2021/08/05 03:22:44;;;;;;;15.00;5.25;;;;;;;;;;4453980;32;20662;-58
2021/08/05 03:25:10;;;;;;;15.07;5.28;;;;;;;;;;4462637;32;20211;-57
2021/08/05 03:27:36;;;;;;;16.42;4.80;;;;;;;;;;4449656;32;20250;-57
2021/08/05 03:30:02;;;;;;;13.45;5.50;;;;;;;;;;4453789;32;20208;-58
2021/08/05 03:32:28;;;;;;;15.80;5.95;;;;;;;;;;4462843;32;20561;-58
2021/08/05 03:34:54;;;;;;;14.55;6.28;;;;;;;;;;4465435;32;20216;-57
2021/08/05 03:37:19;;;;;;;15.05;6.03;;;;;;;;;;4449658;32;20277;-57
2021/08/05 03:39:45;;;;;;;15.30;6.03;;;;;;;;;;4451079;32;20499;-56
2021/08/05 03:42:10;;;;;;;27.45;6.87;;;;;;;;;;4459383;32;20325;-58
2021/08/05 03:44:36;;;;;;;23.92;6.12;;;;;;;;;;4455513;32;20244;-57
2021/08/05 03:47:01;;;;;;;11.32;6.10;;;;;;;;;;4465760;32;20232;-57
2021/08/05 03:49:27;;;;;;;24.58;7.60;;;;;;;;;;4464295;32;20343;-57
2021/08/05 03:51:52;;;;;;;18.08;7.95;;;;;;;;;;4465574;32;20247;-58
2021/08/05 03:54:17;;;;;;;15.05;7.18;;;;;;;;;;4465859;32;20196;-58
2021/08/05 03:56:43;;;;;;;19.27;7.95;;;;;;;;;;4451905;32;20251;-58
2021/08/05 03:59:08;;;;;;;19.08;7.37;;;;;;;;;;4451933;32;20419;-58
2021/08/05 04:01:34;;;;;;;16.50;6.68;;;;;;;;;;4455059;32;20777;-59
2021/08/05 04:03:59;;;;;;;25.00;8.32;;;;;;;;;;4462350;32;20262;-59
2021/08/05 04:06:25;;;;;;;16.42;7.37;;;;;;;;;;4463549;32;20510;-58
2021/08/05 04:08:50;;;;;;;27.42;8.85;;;;;;;;;;4460984;32;20323;-58
2021/08/05 04:11:16;;;;;;;18.75;9.32;;;;;;;;;;4463526;32;20246;-58
2021/08/05 04:13:41;;;;;;;19.62;7.45;;;;;;;;;;4465425;32;20238;-59
2021/08/05 04:16:08;;;;;;;23.48;7.82;;;;;;;;;;4458420;32;20394;-58
2021/08/05 04:18:34;;;;;;;24.90;8.70;;;;;;;;;;4465527;32;20209;-59
2021/08/05 04:20:59;;;;;;;23.70;10.13;;;;;;;;;;4463581;32;20655;-59
2021/08/05 04:23:24;;;;;;;17.05;7.90;;;;;;;;;;4462432;32;20212;-58
2021/08/05 04:25:50;;;;;;;16.35;7.10;;;;;;;;;;4456441;32;20331;-57
2021/08/05 04:28:16;;;;;;;17.23;7.50;;;;;;;;;;4452929;32;20201;-58
2021/08/05 04:30:41;;;;;;;14.27;7.32;;;;;;;;;;4448561;32;20811;-58
2021/08/05 04:33:07;;;;;;;27.52;8.35;;;;;;;;;;4463747;32;20227;-58
2021/08/05 04:35:32;;;;;;;23.90;7.43;;;;;;;;;;4457725;32;20205;-58
2021/08/05 04:38:00;;;;;;;17.33;7.07;;;;;;;;;;4450208;32;20233;-58
2021/08/05 04:40:28;;;;;;;19.95;7.68;;;;;;;;;;4454842;32;20228;-57
2021/08/05 04:42:54;;;;;;;17.37;7.50;;;;;;;;;;4457769;32;20215;-58
2021/08/05 04:45:20;;;;;;;25.67;11.00;;;;;;;;;;4449500;32;20310;-58
2021/08/05 04:47:53;;;;;;;24.87;9.25;;;;;;;;;;4449030;32;20357;-58
2021/08/05 04:50:19;;;;;;;26.83;8.15;;;;;;;;;;4450166;32;20262;-58
2021/08/05 04:52:45;;;;;;;16.05;8.48;;;;;;;;;;4451326;32;20619;-59
2021/08/05 04:55:10;;;;;;;15.02;9.27;;;;;;;;;;4459775;32;20383;-58
2021/08/05 04:57:53;;;;;;;28.77;8.75;;;;;;;;;;4449113;32;20259;-58
2021/08/05 05:00:26;;;;;;;16.55;8.43;;;;;;;;;;4450193;32;20284;-58
2021/08/05 05:02:52;;;;;;;20.83;8.50;;;;;;;;;;4448759;32;20342;-58
2021/08/05 05:05:18;;;;;;;19.58;7.30;;;;;;;;;;4449342;32;20213;-58
2021/08/05 05:07:44;;;;;;;17.05;8.23;;;;;;;;;;4449281;32;20697;-58
2021/08/05 05:10:10;;;;;;;21.40;9.48;;;;;;;;;;4449332;32;20288;-58
2021/08/05 05:12:36;;;;;;;21.45;8.60;;;;;;;;;;4449850;32;20244;-58
2021/08/05 05:15:02;;;;;;;17.02;6.87;;;;;;;;;;4453081;32;20216;-58
2021/08/05 05:17:27;;;;;;;25.62;8.65;;;;;;;;;;4449097;32;20252;-58
2021/08/05 05:19:53;;;;;;;30.37;9.43;;;;;;;;;;4451813;32;20280;-59
2021/08/05 05:22:19;;;;;;;24.15;8.45;;;;;;;;;;4458849;32;20224;-59
2021/08/05 05:24:44;;;;;;;19.65;8.52;;;;;;;;;;4448882;32;20201;-59
2021/08/05 05:27:10;;;;;;;20.00;7.12;;;;;;;;;;4461318;32;20662;-58
2021/08/05 05:29:36;;;;;;;14.68;5.90;;;;;;;;;;4463017;32;20208;-59
2021/08/05 05:32:03;;;;;;;16.30;6.32;;;;;;;;;;4455482;32;20687;-58
2021/08/05 05:34:28;;;;;;;9.02;5.43;;;;;;;;;;4452776;32;20212;-58
2021/08/05 05:36:54;;;;;;;26.35;9.95;;;;;;;;;;4455786;32;20348;-58
2021/08/05 05:39:19;;;;;;;41.50;12.60;;;;;;;;;;4457737;32;20684;-57
2021/08/05 05:41:45;;;;;;;42.95;12.60;;;;;;;;;;4447524;32;20300;-58
2021/08/05 05:44:10;;;;;;;29.17;9.10;;;;;;;;;;4445968;32;20405;-56
2021/08/05 05:46:36;;;;;;;27.10;7.97;;;;;;;;;;4462222;32;20247;-58
2021/08/05 05:49:01;;;;;;;21.37;7.95;;;;;;;;;;4457490;32;20690;-58
2021/08/05 05:51:27;;;;;;;24.15;8.25;;;;;;;;;;4454233;32;20211;-59
2021/08/05 05:53:52;;;;;;;25.48;9.38;;;;;;;;;;4464140;32;20577;-58
2021/08/05 05:56:18;;;;;;;32.92;8.57;;;;;;;;;;4464018;32;20560;-57
2021/08/05 05:58:43;;;;;;;14.30;7.40;;;;;;;;;;4457270;32;20209;-58
2021/08/05 06:01:08;;;;;;;25.27;8.80;;;;;;;;;;4455597;32;20375;-58
2021/08/05 06:03:34;;;;;;;19.45;7.50;;;;;;;;;;4458823;32;20247;-57
2021/08/05 06:05:59;;;;;;;22.95;8.40;;;;;;;;;;4449666;32;20330;-57
2021/08/05 06:08:25;;;;;;;16.40;7.70;;;;;;;;;;4455438;32;20361;-57
2021/08/05 06:10:50;;;;;;;20.23;8.38;;;;;;;;;;4462190;32;20286;-57
2021/08/05 06:13:16;;;;;;;19.85;7.53;;;;;;;;;;4464436;32;20310;-57
2021/08/05 06:15:41;;;;;;;18.70;7.45;;;;;;;;;;4466514;32;20306;-56
2021/08/05 06:18:07;;;;;;;15.15;7.45;;;;;;;;;;4466888;32;20246;-58
2021/08/05 06:20:32;;;;;;;20.77;7.25;;;;;;;;;;4465879;32;20650;-59
2021/08/05 06:22:58;;;;;;;13.62;7.03;;;;;;;;;;4463756;32;20619;-59
2021/08/05 06:25:23;;;;;;;14.05;7.28;;;;;;;;;;4451829;32;20364;-58
2021/08/05 06:27:49;;;;;;;16.52;6.68;;;;;;;;;;4466089;32;20307;-58
2021/08/05 06:30:15;;;;;;;19.37;7.75;;;;;;;;;;4465763;32;20284;-57
2021/08/05 06:32:40;;;;;;;26.12;7.45;;;;;;;;;;4455837;32;20264;-58
2021/08/05 06:35:07;;;;;;;20.73;8.02;;;;;;;;;;4451586;32;20324;-59
2021/08/05 06:37:32;;;;;;;20.27;8.32;;;;;;;;;;4465608;32;20220;-58
2021/08/05 06:39:59;;;;;;;12.32;6.10;;;;;;;;;;4467039;32;20669;-58
2021/08/05 06:42:25;;;;;;;11.90;6.80;;;;;;;;;;4465691;32;20262;-58
2021/08/05 06:44:50;;;;;;;21.17;7.03;;;;;;;;;;4464483;32;20331;-59
2021/08/05 06:47:16;;;;;;;21.70;8.32;;;;;;;;;;4465922;32;20224;-58
2021/08/05 06:49:43;;;;;;;18.15;7.57;;;;;;;;;;4463907;32;20722;-58
2021/08/05 06:52:08;;;;;;;23.55;7.15;;;;;;;;;;4466539;32;20275;-57
2021/08/05 06:54:34;;;;;;;16.30;7.07;;;;;;;;;;4466703;32;20316;-58
2021/08/05 06:57:00;;;;;;;17.08;7.30;;;;;;;;;;4466554;32;20726;-58
2021/08/05 06:59:25;;;;;;;17.20;7.18;;;;;;;;;;4459725;32;20239;-57
2021/08/05 07:01:51;;;;;;;17.23;6.93;;;;;;;;;;4453187;32;20745;-57
2021/08/05 07:04:16;;;;;;;20.50;6.97;;;;;;;;;;4455472;32;20570;-57
2021/08/05 07:06:42;;;;;;;20.50;8.13;;;;;;;;;;4450598;32;20229;-57
2021/08/05 07:09:08;;;;;;;14.15;7.22;;;;;;;;;;4450007;32;20236;-58
2021/08/05 07:11:33;;;;;;;10.38;7.15;;;;;;;;;;4452337;32;20271;-57
2021/08/05 07:13:59;;;;;;;20.12;8.18;;;;;;;;;;4450118;32;20569;-58
2021/08/05 07:16:24;;;;;;;14.80;6.87;;;;;;;;;;4450668;32;20212;-56
2021/08/05 07:18:50;;;;;;;19.42;8.05;;;;;;;;;;4450862;32;20267;-57
2021/08/05 07:21:15;;;;;;;16.23;7.10;;;;;;;;;;4459726;32;20216;-57
2021/08/05 07:23:41;;;;;;;14.30;7.65;;;;;;;;;;4461795;32;20264;-58
2021/08/05 07:26:06;;;;;;;17.95;8.25;;;;;;;;;;4450312;32;20299;-57
2021/08/05 07:28:32;;;;;;;19.25;8.25;;;;;;;;;;4452084;32;20212;-57
2021/08/05 07:30:58;;;;;;;28.80;10.10;;;;;;;;;;4453438;32;20295;-58
2021/08/05 07:33:24;;;;;;;24.83;10.95;;;;;;;;;;4460999;32;20295;-58
2021/08/05 07:35:49;;;;;;;22.30;13.90;;;;;;;;;;4453544;32;20712;-58
2021/08/05 07:38:15;;;;;;;25.77;13.75;;;;;;;;;;4451637;32;20327;-57
2021/08/05 07:40:41;;;;;;;28.55;14.25;;;;;;;;;;4464026;32;20342;-57
2021/08/05 07:43:06;;;;;;;29.42;15.68;;;;;;;;;;4450647;32;20246;-57
2021/08/05 07:45:33;;;;;;;30.12;16.77;;;;;;;;;;4455722;32;20689;-57
2021/08/05 07:47:59;;;;;;;37.10;19.20;;;;;;;;;;4458224;32;20224;-56
2021/08/05 07:50:24;;;;;;;30.70;19.40;;;;;;;;;;4465808;32;20311;-59
2021/08/05 07:52:50;;;;;;;32.67;20.20;;;;;;;;;;4465814;32;20676;-57
2021/08/05 07:55:16;;;;;;;42.50;23.95;;;;;;;;;;4466132;32;20302;-58
2021/08/05 07:57:41;;;;;;;54.70;28.17;;;;;;;;;;4465554;32;20319;-57
2021/08/05 08:00:08;;;;;;;44.22;27.23;;;;;;;;;;4465643;32;20313;-58
2021/08/05 08:02:34;;;;;;;59.60;32.67;;;;;;;;;;4463398;32;20258;-58
2021/08/05 08:04:59;;;;;;;61.80;38.50;;;;;;;;;;4451705;32;20224;-58
2021/08/05 08:07:25;;;;;;;67.70;37.67;;;;;;;;;;4465559;32;20709;-57
2021/08/05 08:09:50;;;;;;;64.62;37.45;;;;;;;;;;4465363;32;20294;-57
2021/08/05 08:12:16;;;;;;;54.95;35.15;;;;;;;;;;4464406;32;20304;-58
2021/08/05 08:14:41;;;;;;;56.45;34.50;;;;;;;;;;4465099;32;20212;-57
2021/08/05 08:17:07;;;;;;;55.72;34.13;;;;;;;;;;4465269;32;20219;-58
2021/08/05 08:19:33;;;;;;;46.65;30.37;;;;;;;;;;4464983;32;20240;-57
2021/08/05 08:22:00;;;;;;;47.65;30.85;;;;;;;;;;4465340;32;20293;-58
2021/08/05 08:24:27;;;;;;;54.80;29.60;;;;;;;;;;4465454;32;20314;-59
2021/08/05 08:26:52;;;;;;;45.38;27.02;;;;;;;;;;4463286;32;20251;-57
2021/08/05 08:29:18;;;;;;;45.75;25.45;;;;;;;;;;4465181;32;20200;-57
2021/08/05 08:31:43;;;;;;;44.63;26.48;;;;;;;;;;4459644;32;20236;-56
2021/08/05 08:34:09;;;;;;;36.28;26.27;;;;;;;;;;4449484;32;20287;-57
2021/08/05 08:36:34;;;;;;;47.88;26.67;;;;;;;;;;4454571;32;20292;-57
2021/08/05 08:39:00;;;;;;;46.15;24.12;;;;;;;;;;4463242;32;21090;-57
2021/08/05 08:41:26;;;;;;;39.80;25.70;;;;;;;;;;4464729;32;20350;-57
2021/08/05 08:43:52;;;;;;;46.72;24.85;;;;;;;;;;4464795;32;20711;-57
2021/08/05 08:46:21;;;;;;;40.05;24.10;;;;;;;;;;4464981;32;20667;-58
2021/08/05 08:48:52;;;;;;;39.20;22.98;;;;;;;;;;4464298;32;20208;-58
2021/08/05 08:51:19;;;;;;;39.67;22.92;;;;;;;;;;4463862;32;20228;-58
2021/08/05 08:53:50;;;;;;;52.05;25.02;;;;;;;;;;4465036;32;20231;-57
2021/08/05 08:56:16;;;;;;;40.67;24.20;;;;;;;;;;4464869;32;20220;-57
2021/08/05 08:58:42;;;;;;;45.25;24.15;;;;;;;;;;4464872;32;20216;-57
2021/08/05 09:01:09;;;;;;;35.83;20.30;;;;;;;;;;4465027;32;20302;-57
2021/08/05 09:03:35;;;;;;;48.42;23.75;;;;;;;;;;4464352;32;20303;-58
2021/08/05 09:06:00;;;;;;;34.45;24.58;;;;;;;;;;4464485;32;20535;-58
2021/08/05 09:08:26;;;;;;;36.10;22.40;;;;;;;;;;4464397;32;20287;-57
2021/08/05 09:10:56;;;;;;;37.00;22.17;;;;;;;;;;4464187;32;20597;-57
2021/08/05 09:13:21;;;;;;;37.70;21.87;;;;;;;;;;4462618;32;20790;-57
2021/08/05 09:15:47;;;;;;;31.87;20.60;;;;;;;;;;4464497;32;20319;-57
2021/08/05 09:18:35;;;;;;;34.50;21.42;;;;;;;;;;4463604;32;20278;-58
2021/08/05 09:21:23;;;;;;;42.67;20.98;;;;;;;;;;4458255;32;20299;-58
2021/08/05 09:23:48;;;;;;;40.90;22.45;;;;;;;;;;4464454;32;20539;-57
2021/08/05 09:26:28;;;;;;;41.20;22.30;;;;;;;;;;4451129;32;20399;-58
2021/08/05 09:29:02;;;;;;;40.10;25.08;;;;;;;;;;4448019;32;20285;-59
2021/08/05 09:31:29;;;;;;;44.03;22.30;;;;;;;;;;4444235;32;20284;-59
2021/08/05 09:34:12;;;;;;;31.65;21.37;;;;;;;;;;4463944;32;20694;-58
2021/08/05 09:36:39;;;;;;;49.10;25.33;;;;;;;;;;4458370;32;20359;-59
2021/08/05 09:39:28;;;;;;;50.35;22.65;;;;;;;;;;4458405;32;20250;-59
2021/08/05 09:41:55;;;;;;;45.75;23.08;;;;;;;;;;4452670;32;20581;-58
2021/08/05 09:44:21;;;;;;;45.75;23.92;;;;;;;;;;4455776;32;20288;-58
2021/08/05 09:47:00;;;;;;;40.17;22.42;;;;;;;;;;4447838;32;20364;-58
2021/08/05 09:49:26;;;;;;;36.30;22.23;;;;;;;;;;4452336;32;20333;-57
2021/08/05 09:51:59;;;;;;;36.08;21.23;;;;;;;;;;4447417;32;20340;-58
2021/08/05 09:54:41;;;;;;;33.78;21.70;;;;;;;;;;4460009;32;20279;-59
2021/08/05 09:57:07;;;;;;;39.33;22.45;;;;;;;;;;4456136;32;20284;-58
2021/08/05 09:59:33;;;;;;;45.30;20.35;;;;;;;;;;4454328;32;20693;-58
2021/08/05 10:02:05;;;;;;;27.45;18.17;;;;;;;;;;4460163;32;20255;-58
2021/08/05 10:04:32;;;;;;;34.85;18.80;;;;;;;;;;4461106;32;20319;-58
2021/08/05 10:07:06;;;;;;;35.83;16.58;;;;;;;;;;4451532;32;20320;-58
2021/08/05 10:09:35;;;;;;;25.95;12.75;;;;;;;;;;4453599;32;20311;-58
2021/08/05 10:12:13;;;;;;;17.75;11.07;;;;;;;;;;4449735;32;20708;-58
2021/08/05 10:14:39;;;;;;;28.85;10.80;;;;;;;;;;4456223;32;20810;-58
2021/08/05 10:17:06;;;;;;;31.85;10.55;;;;;;;;;;4448198;32;20636;-59
2021/08/05 10:19:36;;;;;;;22.52;10.10;;;;;;;;;;4456035;32;20220;-58
2021/08/05 10:22:03;;;;;;;22.15;9.23;;;;;;;;;;4459526;32;20331;-58
2021/08/05 10:24:29;;;;;;;18.08;7.18;;;;;;;;;;4455800;32;20312;-58
2021/08/05 10:26:55;;;;;;;18.55;7.82;;;;;;;;;;4457864;32;20382;-59
2021/08/05 10:29:21;;;;;;;19.77;6.18;;;;;;;;;;4462569;32;20299;-58
2021/08/05 10:31:48;;;;;;;26.95;6.65;;;;;;;;;;4457896;32;20237;-58
2021/08/05 10:34:14;;;;;;;17.55;5.90;;;;;;;;;;4458851;32;20196;-58
2021/08/05 10:36:41;;;;;;;16.87;6.80;;;;;;;;;;4456753;32;20241;-58
2021/08/05 10:39:07;;;;;;;17.48;5.05;;;;;;;;;;4463051;32;20204;-59
2021/08/05 10:41:33;;;;;;;10.35;5.57;;;;;;;;;;4454204;32;20276;-58
2021/08/05 10:43:59;;;;;;;15.98;6.75;;;;;;;;;;4459461;32;20209;-59
2021/08/05 10:46:32;;;;;;;18.98;5.55;;;;;;;;;;4460944;32;20724;-58
2021/08/05 10:49:00;;;;;;;14.55;5.97;;;;;;;;;;4453244;32;20610;-59
2021/08/05 10:51:25;;;;;;;19.27;6.10;;;;;;;;;;4449840;32;20232;-58
2021/08/05 10:53:51;;;;;;;21.55;7.30;;;;;;;;;;4452698;32;20636;-58
2021/08/05 10:56:18;;;;;;;21.35;6.68;;;;;;;;;;4460517;32;20586;-57
2021/08/05 10:59:13;;;;;;;22.13;6.53;;;;;;;;;;4457707;32;20263;-58
2021/08/05 11:01:49;;;;;;;17.70;5.87;;;;;;;;;;4454950;32;20254;-58
2021/08/05 11:04:39;;;;;;;15.25;5.80;;;;;;;;;;4453291;32;20243;-58
2021/08/05 11:07:25;;;;;;;15.45;5.95;;;;;;;;;;4452463;32;20236;-58
2021/08/05 11:09:52;;;;;;;20.75;5.50;;;;;;;;;;4459720;32;20211;-58
2021/08/05 11:12:35;;;;;;;13.32;5.93;;;;;;;;;;4451892;32;20270;-57
2021/08/05 11:15:01;;;;;;;11.57;5.50;;;;;;;;;;4465439;32;20647;-58
2021/08/05 11:17:26;;;;;;;25.58;6.60;;;;;;;;;;4457330;32;20236;-59
2021/08/05 11:20:13;;;;;;;10.70;4.72;;;;;;;;;;4459310;32;20224;-57
2021/08/05 11:22:40;;;;;;;21.37;5.50;;;;;;;;;;4452959;32;20268;-58
2021/08/05 11:25:06;;;;;;;14.65;4.78;;;;;;;;;;4463564;32;20266;-58
2021/08/05 11:27:31;;;;;;;18.40;5.70;;;;;;;;;;4456992;32;20370;-58
2021/08/05 11:29:57;;;;;;;15.68;4.60;;;;;;;;;;4462418;32;20263;-58
2021/08/05 11:32:23;;;;;;;20.55;6.12;;;;;;;;;;4458125;32;20244;-57
2021/08/05 11:35:05;;;;;;;14.02;5.07;;;;;;;;;;4465504;32;20688;-57
2021/08/05 11:37:31;;;;;;;14.15;5.22;;;;;;;;;;4459252;32;20673;-57
2021/08/05 11:40:04;;;;;;;17.52;4.95;;;;;;;;;;4453638;32;20288;-57
2021/08/05 11:42:30;;;;;;;20.27;5.65;;;;;;;;;;4464606;32;20823;-57
2021/08/05 11:44:59;;;;;;;16.50;4.47;;;;;;;;;;4459659;32;20557;-58
2021/08/05 11:47:33;;;;;;;14.75;5.15;;;;;;;;;;4450041;32;20223;-57
2021/08/05 11:50:10;;;;;;;14.20;4.25;;;;;;;;;;4461770;32;20632;-57
2021/08/05 11:52:42;;;;;;;16.35;5.57;;;;;;;;;;4454818;32;20512;-57
2021/08/05 11:55:21;;;;;;;17.90;5.20;;;;;;;;;;4452564;32;20234;-58
2021/08/05 11:57:51;;;;;;;12.88;5.28;;;;;;;;;;4463635;32;20312;-58
2021/08/05 12:00:24;;;;;;;10.88;4.65;;;;;;;;;;4449549;32;20255;-58
2021/08/05 12:02:52;;;;;;;17.40;4.28;;;;;;;;;;4448451;32;20498;-58
2021/08/05 12:05:20;;;;;;;16.85;4.97;;;;;;;;;;4457595;32;20263;-58
2021/08/05 12:07:48;;;;;;;19.42;4.78;;;;;;;;;;4448423;32;20260;-58
2021/08/05 12:10:20;;;;;;;10.15;5.22;;;;;;;;;;4446605;32;20308;-59
2021/08/05 12:12:54;;;;;;;16.17;4.40;;;;;;;;;;4448157;32;20700;-58
2021/08/05 12:15:41;;;;;;;15.63;5.70;;;;;;;;;;4457087;32;20211;-58
2021/08/05 12:18:08;;;;;;;11.65;3.78;;;;;;;;;;4450965;32;20320;-58
2021/08/05 12:20:36;;;;;;;26.48;4.70;;;;;;;;;;4450580;32;20640;-58
2021/08/05 12:23:44;;;;;;;10.93;4.47;;;;;;;;;;4449759;32;20296;-58
2021/08/05 12:26:23;;;;;;;28.98;5.75;;;;;;;;;;4460006;32;20328;-58
2021/08/05 12:28:51;;;;;;;17.30;4.85;;;;;;;;;;4464761;32;20283;-58
2021/08/05 12:31:23;;;;;;;15.85;4.30;;;;;;;;;;4462470;32;20213;-58
2021/08/05 12:33:50;;;;;;;16.80;4.72;;;;;;;;;;4449232;32;20358;-58
2021/08/05 12:36:15;;;;;;;11.68;4.32;;;;;;;;;;4457201;32;20252;-58
2021/08/05 12:39:04;;;;;;;13.40;5.45;;;;;;;;;;4462527;32;20415;-57
2021/08/05 12:41:49;;;;;;;10.80;4.87;;;;;;;;;;4446341;32;20577;-57
2021/08/05 12:44:20;;;;;;;14.23;4.30;;;;;;;;;;4460462;32;20200;-57
2021/08/05 12:46:49;;;;;;;17.20;5.28;;;;;;;;;;4459140;32;20216;-56
2021/08/05 12:49:15;;;;;;;15.95;4.65;;;;;;;;;;4464565;32;20303;-57
2021/08/05 12:51:41;;;;;;;21.90;5.65;;;;;;;;;;4451374;32;20301;-57
2021/08/05 12:54:16;;;;;;;15.40;3.95;;;;;;;;;;4465005;32;20561;-58
2021/08/05 12:56:46;;;;;;;12.98;4.40;;;;;;;;;;4462577;32;20324;-57
2021/08/05 12:59:12;;;;;;;15.13;5.60;;;;;;;;;;4460308;32;20275;-57
2021/08/05 13:01:38;;;;;;;17.27;4.82;;;;;;;;;;4460744;32;20235;-58
2021/08/05 13:04:04;;;;;;;13.98;4.93;;;;;;;;;;4450280;32;20600;-58
2021/08/05 13:06:52;;;;;;;12.73;5.37;;;;;;;;;;4463896;32;20296;-58
2021/08/05 13:09:18;;;;;;;15.60;5.03;;;;;;;;;;4463861;32;20232;-58
2021/08/05 13:11:43;;;;;;;14.65;5.60;;;;;;;;;;4450836;32;20254;-58
2021/08/05 13:14:34;;;;;;;13.38;5.53;;;;;;;;;;4463607;32;20243;-58
2021/08/05 13:17:22;;;;;;;18.75;5.03;;;;;;;;;;4457071;32;20300;-58
2021/08/05 13:19:51;;;;;;;15.57;4.30;;;;;;;;;;4462666;32;20261;-59
2021/08/05 13:22:17;;;;;;;15.55;6.93;;;;;;;;;;4463894;32;20287;-58
2021/08/05 13:24:56;;;;;;;15.75;5.15;;;;;;;;;;4462848;32;20217;-58
2021/08/05 13:27:23;;;;;;;16.48;5.25;;;;;;;;;;4463863;32;20338;-58
2021/08/05 13:29:50;;;;;;;19.52;6.07;;;;;;;;;;4461734;32;20590;-58
2021/08/05 13:32:21;;;;;;;20.48;5.95;;;;;;;;;;4456828;32;20207;-58
2021/08/05 13:35:16;;;;;;;14.25;4.43;;;;;;;;;;4463936;32;20582;-58
2021/08/05 13:37:44;;;;;;;14.07;5.45;;;;;;;;;;4440244;32;20607;-58
2021/08/05 13:40:16;;;;;;;15.45;5.25;;;;;;;;;;4459316;32;20344;-59
2021/08/05 13:42:41;;;;;;;9.13;4.57;;;;;;;;;;4455075;32;20331;-58
2021/08/05 13:45:09;;;;;;;10.10;4.22;;;;;;;;;;4453428;32;20785;-59
2021/08/05 13:47:35;;;;;;;19.33;4.35;;;;;;;;;;4461055;32;20625;-58
2021/08/05 13:50:22;;;;;;;12.45;4.80;;;;;;;;;;4456721;32;20682;-58
2021/08/05 13:52:49;;;;;;;10.52;4.35;;;;;;;;;;4463093;32;20238;-58
2021/08/05 13:55:16;;;;;;;17.12;5.55;;;;;;;;;;4455335;32;20585;-58
2021/08/05 13:57:41;;;;;;;12.70;4.22;;;;;;;;;;4463368;32;20799;-58
2021/08/05 14:00:08;;;;;;;18.80;4.50;;;;;;;;;;4462351;32;20275;-58
2021/08/05 14:02:38;;;;;;;16.55;4.43;;;;;;;;;;4463336;32;20674;-58
2021/08/05 14:05:04;;;;;;;17.98;5.60;;;;;;;;;;4458652;32;20244;-58
2021/08/05 14:07:30;;;;;;;12.15;4.68;;;;;;;;;;4448124;32;20248;-58
2021/08/05 14:09:56;;;;;;;12.77;4.32;;;;;;;;;;4446573;32;20698;-58
2021/08/05 14:12:21;;;;;;;24.12;4.90;;;;;;;;;;4462614;32;20306;-58
2021/08/05 14:14:47;;;;;;;10.07;3.72;;;;;;;;;;4462083;32;20304;-59
2021/08/05 14:17:13;;;;;;;21.33;5.25;;;;;;;;;;4459218;32;20208;-57
2021/08/05 14:19:38;;;;;;;17.35;4.95;;;;;;;;;;4448636;32;20192;-58
2021/08/05 14:22:06;;;;;;;14.35;4.80;;;;;;;;;;4448148;32;20213;-58
2021/08/05 14:24:32;;;;;;;13.20;5.05;;;;;;;;;;4454940;32;20310;-58
2021/08/05 14:26:57;;;;;;;29.48;5.32;;;;;;;;;;4462317;32;20248;-58
2021/08/05 14:29:23;;;;;;;14.05;4.62;;;;;;;;;;4447765;32;20279;-58
2021/08/05 14:31:49;;;;;;;21.75;5.62;;;;;;;;;;4447396;32;20773;-59
2021/08/05 14:34:14;;;;;;;14.95;4.95;;;;;;;;;;4448812;32;20259;-59